createdAt,value
2023-03-08T00:01:24.198Z,25.30
2023-03-08T00:03:53.754Z,24.90
2023-03-08T00:06:22.480Z,24.00
2023-03-08T00:08:56.097Z,25.10
2023-03-08T00:11:24.515Z,23.20
2023-03-08T00:13:53.024Z,27.73
2023-03-08T00:16:21.429Z,22.90
2023-03-08T00:18:50.036Z,25.97
2023-03-08T00:21:19.800Z,23.37
2023-03-08T00:23:48.376Z,26.37
2023-03-08T00:26:18.086Z,21.50
2023-03-08T00:28:47.364Z,25.10
2023-03-08T00:31:15.978Z,21.53
2023-03-08T00:33:44.312Z,24.83
2023-03-08T00:36:17.791Z,25.00
2023-03-08T00:38:46.984Z,24.17
2023-03-08T00:41:17.418Z,26.20
2023-03-08T00:43:45.876Z,23.03
2023-03-08T00:46:14.961Z,23.10
2023-03-08T00:48:43.657Z,24.90
2023-03-08T00:51:14.007Z,23.83
2023-03-08T00:53:42.410Z,22.93
2023-03-08T00:56:11.539Z,24.77
2023-03-08T00:58:42.447Z,22.63
2023-03-08T01:01:16.991Z,25.63
2023-03-08T01:03:48.110Z,24.67
2023-03-08T01:06:17.606Z,23.43
2023-03-08T01:08:46.383Z,25.00
2023-03-08T01:11:20.344Z,23.00
2023-03-08T01:13:50.525Z,21.80
2023-03-08T01:16:20.356Z,21.47
2023-03-08T01:18:48.738Z,20.37
2023-03-08T01:21:17.837Z,23.43
2023-03-08T01:23:46.184Z,21.80
2023-03-08T01:26:16.418Z,21.50
2023-03-08T01:28:44.812Z,19.83
2023-03-08T01:31:16.269Z,21.13
2023-03-08T01:33:44.888Z,21.37
2023-03-08T01:36:16.172Z,22.20
2023-03-08T01:38:46.544Z,22.97
2023-03-08T01:41:17.798Z,21.50
2023-03-08T01:43:46.485Z,21.50
2023-03-08T01:46:28.392Z,21.57
2023-03-08T01:49:37.380Z,18.97
2023-03-08T01:52:10.407Z,20.10
2023-03-08T01:54:41.347Z,19.90
2023-03-08T01:57:13.406Z,25.23
2023-03-08T01:59:41.994Z,21.73
2023-03-08T02:02:12.096Z,19.90
2023-03-08T02:04:40.956Z,19.50
2023-03-08T02:07:12.819Z,17.87
2023-03-08T02:09:42.339Z,21.00
2023-03-08T02:12:13.174Z,23.00
2023-03-08T02:14:42.842Z,26.20
2023-03-08T02:17:13.212Z,25.00
2023-03-08T02:19:47.434Z,26.87
2023-03-08T02:22:16.673Z,27.57
2023-03-08T02:24:46.547Z,29.90
2023-03-08T02:27:16.910Z,28.00
2023-03-08T02:29:45.352Z,24.83
2023-03-08T02:32:13.644Z,25.63
2023-03-08T02:34:41.957Z,25.90
2023-03-08T02:37:10.327Z,23.40
2023-03-08T02:39:38.602Z,25.43
2023-03-08T02:42:08.956Z,25.63
2023-03-08T02:44:37.384Z,27.50
2023-03-08T02:47:06.617Z,25.73
2023-03-08T02:49:34.898Z,25.77
2023-03-08T02:52:04.036Z,25.00
2023-03-08T02:54:32.312Z,25.80
2023-03-08T02:57:01.832Z,24.73
2023-03-08T02:59:32.649Z,26.60
2023-03-08T03:02:01.194Z,26.27
2023-03-08T03:04:31.307Z,24.53
2023-03-08T03:07:00.518Z,22.90
2023-03-08T03:09:29.908Z,24.47
2023-03-08T03:11:58.486Z,22.90
2023-03-08T03:14:29.262Z,23.53
2023-03-08T03:16:59.740Z,25.40
2023-03-08T03:19:28.309Z,23.43
2023-03-08T03:21:56.663Z,24.73
2023-03-08T03:24:25.088Z,24.67
2023-03-08T03:26:57.329Z,27.60
2023-03-08T03:29:28.504Z,23.23
2023-03-08T03:32:09.158Z,24.73
2023-03-08T03:34:37.558Z,22.37
2023-03-08T03:37:06.149Z,23.30
2023-03-08T03:39:38.084Z,22.80
2023-03-08T03:42:08.644Z,21.13
2023-03-08T03:44:39.723Z,23.63
2023-03-08T03:47:12.889Z,23.20
2023-03-08T03:49:41.349Z,25.13
2023-03-08T03:52:09.741Z,22.83
2023-03-08T03:54:44.130Z,23.87
2023-03-08T03:57:12.377Z,21.73
2023-03-08T03:59:43.272Z,22.23
2023-03-08T04:02:13.493Z,24.90
2023-03-08T04:04:50.827Z,22.10
2023-03-08T04:07:22.811Z,25.27
2023-03-08T04:09:57.841Z,24.90
2023-03-08T04:12:26.912Z,27.73
2023-03-08T04:14:55.338Z,25.53
2023-03-08T04:17:27.092Z,24.20
2023-03-08T04:19:56.384Z,21.93
2023-03-08T04:22:24.862Z,23.30
2023-03-08T04:25:03.682Z,24.37
2023-03-08T04:27:43.411Z,22.77
2023-03-08T04:30:13.235Z,23.00
2023-03-08T04:32:43.932Z,22.40
2023-03-08T04:35:12.756Z,22.60
2023-03-08T04:37:45.594Z,26.90
2023-03-08T04:40:15.175Z,25.37
2023-03-08T04:42:50.807Z,24.83
2023-03-08T04:45:24.945Z,25.23
2023-03-08T04:47:57.108Z,24.10
2023-03-08T04:50:25.542Z,23.53
2023-03-08T04:52:59.059Z,24.50
2023-03-08T04:55:28.146Z,25.67
2023-03-08T04:57:56.687Z,25.87
2023-03-08T05:00:25.584Z,26.40
2023-03-08T05:02:56.263Z,25.93
2023-03-08T05:05:26.012Z,25.07
2023-03-08T05:07:55.287Z,25.33
2023-03-08T05:10:23.584Z,28.63
2023-03-08T05:12:52.206Z,27.87
2023-03-08T05:15:23.555Z,26.50
2023-03-08T05:17:51.994Z,25.80
2023-03-08T05:20:22.145Z,28.67
2023-03-08T05:22:58.944Z,25.80
2023-03-08T05:25:34.225Z,23.53
2023-03-08T05:28:03.801Z,24.60
2023-03-08T05:30:32.435Z,24.67
2023-03-08T05:33:01.229Z,22.57
2023-03-08T05:35:33.170Z,23.30
2023-03-08T05:38:01.827Z,23.63
2023-03-08T05:40:30.379Z,23.00
2023-03-08T05:42:59.475Z,21.53
2023-03-08T05:45:28.979Z,19.57
2023-03-08T05:47:57.386Z,23.67
2023-03-08T05:50:26.043Z,25.47
2023-03-08T05:52:56.260Z,24.57
2023-03-08T05:55:29.535Z,20.77
2023-03-08T05:57:59.438Z,21.70
2023-03-08T06:00:29.023Z,19.40
2023-03-08T06:03:03.960Z,19.70
2023-03-08T06:05:35.511Z,21.03
2023-03-08T06:08:06.629Z,22.10
2023-03-08T06:10:35.191Z,22.77
2023-03-08T06:13:04.650Z,20.93
2023-03-08T06:15:33.220Z,21.53
2023-03-08T06:18:03.730Z,21.43
2023-03-08T06:20:32.982Z,22.70
2023-03-08T06:23:02.124Z,23.07
2023-03-08T06:25:33.918Z,23.20
2023-03-08T06:28:02.576Z,24.47
2023-03-08T06:30:38.934Z,24.47
2023-03-08T06:33:07.692Z,26.27
2023-03-08T06:35:36.187Z,25.70
2023-03-08T06:38:06.407Z,27.40
2023-03-08T06:40:37.172Z,27.73
2023-03-08T06:43:05.562Z,26.87
2023-03-08T06:45:35.123Z,26.30
2023-03-08T06:48:03.469Z,25.93
2023-03-08T06:50:31.896Z,27.30
2023-03-08T06:53:00.337Z,23.50
2023-03-08T06:55:45.812Z,26.60
2023-03-08T06:58:14.353Z,25.47
2023-03-08T07:00:42.762Z,25.10
2023-03-08T07:03:11.757Z,25.43
2023-03-08T07:05:40.224Z,23.97
2023-03-08T07:08:08.954Z,23.87
2023-03-08T07:10:37.277Z,23.53
2023-03-08T07:13:06.942Z,23.80
2023-03-08T07:15:35.638Z,25.47
2023-03-08T07:18:03.919Z,23.13
2023-03-08T07:20:32.208Z,20.03
2023-03-08T07:23:02.050Z,20.40
2023-03-08T07:25:30.441Z,19.90
2023-03-08T07:28:00.170Z,22.30
2023-03-08T07:30:29.907Z,19.93
2023-03-08T07:32:58.379Z,18.30
2023-03-08T07:35:27.568Z,18.37
2023-03-08T07:37:55.994Z,17.30
2023-03-08T07:40:24.574Z,17.70
2023-03-08T07:42:53.146Z,19.20
2023-03-08T07:45:45.523Z,17.03
2023-03-08T07:48:13.796Z,16.93
2023-03-08T07:50:42.167Z,9.67
2023-03-08T07:53:10.529Z,16.60
2023-03-08T07:55:39.321Z,6.73
2023-03-08T07:58:07.726Z,16.87
2023-03-08T08:00:36.115Z,12.03
2023-03-08T08:03:06.160Z,15.90
2023-03-08T08:05:36.740Z,15.90
2023-03-08T08:08:05.652Z,9.77
2023-03-08T08:10:33.910Z,17.67
2023-03-08T08:13:02.277Z,17.90
2023-03-08T08:15:31.095Z,16.70
2023-03-08T08:17:59.517Z,15.53
2023-03-08T08:20:29.603Z,17.97
2023-03-08T08:22:57.924Z,17.70
2023-03-08T08:25:26.269Z,18.20
2023-03-08T08:27:54.591Z,18.33
2023-03-08T08:30:22.958Z,17.27
2023-03-08T08:32:53.273Z,16.43
2023-03-08T08:35:23.956Z,19.00
2023-03-08T08:37:56.777Z,17.03
2023-03-08T08:40:25.872Z,16.70
2023-03-08T08:42:55.661Z,15.67
2023-03-08T08:45:24.096Z,16.77
2023-03-08T08:47:52.458Z,15.00
2023-03-08T08:50:20.900Z,16.23
2023-03-08T08:52:49.351Z,16.20
2023-03-08T08:55:19.254Z,15.60
2023-03-08T08:57:47.520Z,15.60
2023-03-08T09:00:20.027Z,14.90
2023-03-08T09:02:48.411Z,15.80
2023-03-08T09:05:16.835Z,16.00
2023-03-08T09:07:45.262Z,14.53
2023-03-08T09:10:14.873Z,14.00
2023-03-08T09:12:44.611Z,14.83
2023-03-08T09:15:13.183Z,14.73
2023-03-08T09:17:41.507Z,11.50
2023-03-08T09:20:11.902Z,13.20
2023-03-08T09:22:40.380Z,12.17
2023-03-08T09:25:09.810Z,13.20
2023-03-08T09:27:38.617Z,12.27
2023-03-08T09:30:12.777Z,14.27
2023-03-08T09:32:41.121Z,16.33
2023-03-08T09:35:10.134Z,16.00
2023-03-08T09:37:39.240Z,16.13
2023-03-08T09:40:09.787Z,15.37
2023-03-08T09:42:38.430Z,15.30
2023-03-08T09:45:25.493Z,15.83
2023-03-08T09:48:05.049Z,16.00
2023-03-08T09:50:37.140Z,16.83
2023-03-08T09:53:10.658Z,17.00
2023-03-08T09:55:45.861Z,18.83
2023-03-08T09:58:31.040Z,18.53
2023-03-08T10:01:05.676Z,16.57
2023-03-08T10:03:59.682Z,17.13
2023-03-08T10:06:31.982Z,15.73
2023-03-08T10:09:04.340Z,15.60
2023-03-08T10:11:37.500Z,15.67
2023-03-08T10:14:14.243Z,17.37
2023-03-08T10:16:46.960Z,15.87
2023-03-08T10:19:18.459Z,15.77
2023-03-08T10:21:48.162Z,18.40
2023-03-08T10:24:18.273Z,15.80
2023-03-08T10:26:46.855Z,16.73
2023-03-08T10:29:15.726Z,14.77
2023-03-08T10:31:47.242Z,14.67
2023-03-08T10:34:17.710Z,15.80
2023-03-08T10:36:51.699Z,15.43
2023-03-08T10:39:21.258Z,16.90
2023-03-08T10:41:52.248Z,19.60
2023-03-08T10:44:34.051Z,16.67
2023-03-08T10:47:05.804Z,15.63
2023-03-08T10:49:34.735Z,14.73
2023-03-08T10:52:03.229Z,14.73
2023-03-08T10:54:31.580Z,14.40
2023-03-08T10:57:01.559Z,14.50
2023-03-08T10:59:33.500Z,17.20
2023-03-08T11:02:22.672Z,15.40
2023-03-08T11:04:55.732Z,15.03
2023-03-08T11:07:26.539Z,15.00
2023-03-08T11:10:07.951Z,16.30
2023-03-08T11:12:36.704Z,15.60
2023-03-08T11:15:15.039Z,15.70
2023-03-08T11:17:50.506Z,15.90
2023-03-08T11:20:24.962Z,13.47
2023-03-08T11:23:00.688Z,14.70
2023-03-08T11:25:46.095Z,15.13
2023-03-08T11:28:30.612Z,15.77
2023-03-08T11:31:09.669Z,14.30
2023-03-08T11:33:48.969Z,14.57
2023-03-08T11:36:22.876Z,13.90
2023-03-08T11:39:03.581Z,12.20
2023-03-08T11:41:39.811Z,12.60
2023-03-08T11:44:36.609Z,13.03
2023-03-08T11:47:45.154Z,14.27
2023-03-08T11:50:20.054Z,12.37
2023-03-08T11:52:59.279Z,11.73
2023-03-08T11:55:38.716Z,12.10
2023-03-08T11:58:25.475Z,12.00
2023-03-08T12:00:57.227Z,12.80
2023-03-08T12:03:29.432Z,11.70
2023-03-08T12:06:01.832Z,11.27
2023-03-08T12:08:33.456Z,11.30
2023-03-08T12:11:04.075Z,13.17
2023-03-08T12:13:35.629Z,11.47
2023-03-08T12:16:12.497Z,11.80
2023-03-08T12:18:46.252Z,12.67
2023-03-08T12:21:29.099Z,12.27
2023-03-08T12:24:04.023Z,11.57
2023-03-08T12:26:35.795Z,10.97
2023-03-08T12:29:07.176Z,10.80
2023-03-08T12:31:38.888Z,13.20
2023-03-08T12:34:14.589Z,11.50
2023-03-08T12:36:46.007Z,12.30
2023-03-08T12:39:27.636Z,10.27
2023-03-08T12:42:01.994Z,11.37
2023-03-08T12:44:31.693Z,12.77
2023-03-08T12:47:04.166Z,12.83
2023-03-08T12:49:35.747Z,12.60
2023-03-08T12:52:07.546Z,12.90
2023-03-08T12:54:37.046Z,11.60
2023-03-08T12:57:17.042Z,12.17
2023-03-08T12:59:46.145Z,12.70
2023-03-08T13:02:28.529Z,11.03
2023-03-08T13:05:06.767Z,10.60
2023-03-08T13:07:38.512Z,11.50
2023-03-08T13:10:10.251Z,12.43
2023-03-08T13:12:43.662Z,12.67
2023-03-08T13:15:26.448Z,11.90
2023-03-08T13:18:00.810Z,11.77
2023-03-08T13:20:35.979Z,12.17
2023-03-08T13:23:11.265Z,11.07
2023-03-08T13:25:51.791Z,11.20
2023-03-08T13:28:20.932Z,12.50
2023-03-08T13:30:52.306Z,12.20
2023-03-08T13:33:23.202Z,11.37
2023-03-08T13:35:59.271Z,12.70
2023-03-08T13:38:31.560Z,10.90
2023-03-08T13:41:00.733Z,10.53
2023-03-08T13:43:30.898Z,10.57
2023-03-08T13:46:01.911Z,11.30
2023-03-08T13:48:32.449Z,11.47
2023-03-08T13:51:01.128Z,11.40
2023-03-08T13:53:33.313Z,10.27
2023-03-08T13:56:03.377Z,10.60
2023-03-08T13:58:34.327Z,12.33
2023-03-08T14:01:05.515Z,10.13
2023-03-08T14:03:34.546Z,9.03
2023-03-08T14:06:02.972Z,8.30
2023-03-08T14:08:32.876Z,8.80
2023-03-08T14:11:04.261Z,9.33
2023-03-08T14:13:35.350Z,8.93
2023-03-08T14:16:06.627Z,7.83
2023-03-08T14:18:37.330Z,8.10
2023-03-08T14:21:15.416Z,8.70
2023-03-08T14:23:48.657Z,8.80
2023-03-08T14:26:34.999Z,8.90
2023-03-08T14:29:15.644Z,8.27
2023-03-08T14:31:54.898Z,8.00
2023-03-08T14:34:25.151Z,7.00
2023-03-08T14:36:56.641Z,7.23
2023-03-08T14:39:27.584Z,7.33
2023-03-08T14:41:56.272Z,7.70
2023-03-08T14:44:27.678Z,6.73
2023-03-08T14:46:59.412Z,7.57
2023-03-08T14:49:30.156Z,6.50
2023-03-08T14:51:59.459Z,6.10
2023-03-08T14:54:33.979Z,5.30
2023-03-08T14:57:18.124Z,4.80
2023-03-08T14:59:46.575Z,4.40
2023-03-08T15:02:16.048Z,4.43
2023-03-08T15:04:45.779Z,4.30
2023-03-08T15:07:18.304Z,3.80
2023-03-08T15:09:48.318Z,4.10
2023-03-08T15:12:16.665Z,3.90
2023-03-08T15:14:45.004Z,3.73
2023-03-08T15:17:13.403Z,3.73
2023-03-08T15:19:41.769Z,3.93
2023-03-08T15:22:13.722Z,3.97
2023-03-08T15:24:42.204Z,3.40
2023-03-08T15:27:15.721Z,3.73
2023-03-08T15:29:44.030Z,2.90
2023-03-08T15:32:12.381Z,3.80
2023-03-08T15:34:41.073Z,3.10
2023-03-08T15:37:13.033Z,3.53
2023-03-08T15:39:41.560Z,3.70
2023-03-08T15:42:09.970Z,3.87
2023-03-08T15:44:40.613Z,3.40
2023-03-08T15:47:10.873Z,3.90
2023-03-08T15:49:39.183Z,2.97
2023-03-08T15:52:08.783Z,3.70
2023-03-08T15:54:37.211Z,3.90
2023-03-08T15:57:05.665Z,4.03
2023-03-08T15:59:33.967Z,4.03
2023-03-08T16:02:04.031Z,3.10
2023-03-08T16:04:32.453Z,4.07
2023-03-08T16:07:00.822Z,3.50
2023-03-08T16:09:29.195Z,3.33
2023-03-08T16:11:57.555Z,3.77
2023-03-08T16:14:25.958Z,4.10
2023-03-08T16:16:54.315Z,3.53
2023-03-08T16:19:24.357Z,4.20
2023-03-08T16:21:52.801Z,3.60
2023-03-08T16:24:34.262Z,3.80
2023-03-08T16:27:09.965Z,4.17
2023-03-08T16:29:38.752Z,4.27
2023-03-08T16:32:15.644Z,3.53
2023-03-08T16:34:59.625Z,4.40
2023-03-08T16:37:28.403Z,3.80
2023-03-08T16:40:00.412Z,3.70
2023-03-08T16:42:28.756Z,3.80
2023-03-08T16:44:59.093Z,4.00
2023-03-08T16:47:35.632Z,4.03
2023-03-08T16:50:11.760Z,4.00
2023-03-08T16:52:42.152Z,4.07
2023-03-08T16:55:12.705Z,4.00
2023-03-08T16:57:42.965Z,5.10
2023-03-08T17:00:14.076Z,4.07
2023-03-08T17:02:45.414Z,4.23
2023-03-08T17:05:15.916Z,3.63
2023-03-08T17:07:44.764Z,3.83
2023-03-08T17:10:15.923Z,3.80
2023-03-08T17:12:44.559Z,3.60
2023-03-08T17:15:15.595Z,3.40
2023-03-08T17:17:46.317Z,3.40
2023-03-08T17:20:19.893Z,4.30
2023-03-08T17:22:48.168Z,4.03
2023-03-08T17:25:16.594Z,4.00
2023-03-08T17:27:45.310Z,4.13
2023-03-08T17:30:16.170Z,3.60
2023-03-08T17:32:44.817Z,4.77
2023-03-08T17:35:13.282Z,3.60
2023-03-08T17:37:43.637Z,4.03
2023-03-08T17:40:13.747Z,3.70
2023-03-08T17:42:42.323Z,5.10
2023-03-08T17:45:11.552Z,4.70
2023-03-08T17:47:39.914Z,3.50
2023-03-08T17:50:09.958Z,4.50
2023-03-08T17:52:40.657Z,4.10
2023-03-08T17:55:12.508Z,5.00
2023-03-08T17:57:40.872Z,4.93
2023-03-08T18:00:12.366Z,4.67
2023-03-08T18:02:41.361Z,4.97
2023-03-08T18:05:11.241Z,5.37
2023-03-08T18:07:41.900Z,5.27
2023-03-08T18:10:13.510Z,5.00
2023-03-08T18:12:43.234Z,5.27
2023-03-08T18:15:14.789Z,4.97
2023-03-08T18:17:44.204Z,4.60
2023-03-08T18:20:15.056Z,5.63
2023-03-08T18:22:44.807Z,5.73
2023-03-08T18:25:17.228Z,7.27
2023-03-08T18:27:49.141Z,5.67
2023-03-08T18:30:19.204Z,6.43
2023-03-08T18:32:51.288Z,7.33
2023-03-08T18:35:20.475Z,35.43
2023-03-08T18:37:49.715Z,8.83
2023-03-08T18:40:23.175Z,6.07
2023-03-08T18:42:56.571Z,6.07
2023-03-08T18:45:26.210Z,6.90
2023-03-08T18:47:56.210Z,6.10
2023-03-08T18:50:25.588Z,6.87
2023-03-08T18:52:54.800Z,5.80
2023-03-08T18:55:27.736Z,4.83
2023-03-08T18:57:57.741Z,5.03
2023-03-08T19:00:27.575Z,4.30
2023-03-08T19:02:57.815Z,3.70
2023-03-08T19:05:28.572Z,5.63
2023-03-08T19:07:58.526Z,4.83
2023-03-08T19:10:33.262Z,4.80
2023-03-08T19:13:03.113Z,5.70
2023-03-08T19:15:38.251Z,7.07
2023-03-08T19:18:09.284Z,5.63
2023-03-08T19:20:40.093Z,8.47
2023-03-08T19:23:13.264Z,8.20
2023-03-08T19:25:59.055Z,5.10
2023-03-08T19:28:30.043Z,4.67
2023-03-08T19:31:04.377Z,4.90
2023-03-08T19:33:35.657Z,6.30
2023-03-08T19:36:08.632Z,6.67
2023-03-08T19:38:39.106Z,6.27
2023-03-08T19:41:12.703Z,6.30
2023-03-08T19:43:43.521Z,25.10
2023-03-08T19:46:17.998Z,10.63
2023-03-08T19:48:50.460Z,9.20
2023-03-08T19:51:25.485Z,5.67
2023-03-08T19:53:58.128Z,8.70
2023-03-08T19:56:31.132Z,11.63
2023-03-08T19:59:02.747Z,7.10
2023-03-08T20:01:33.049Z,5.70
2023-03-08T20:04:06.253Z,9.30
2023-03-08T20:06:42.654Z,12.37
2023-03-08T20:09:18.632Z,9.47
2023-03-08T20:11:54.912Z,11.13
2023-03-08T20:14:28.426Z,12.90
2023-03-08T20:16:59.958Z,10.63
2023-03-08T20:19:36.607Z,10.63
2023-03-08T20:22:08.842Z,7.80
2023-03-08T20:24:40.936Z,8.00
2023-03-08T20:27:14.353Z,6.80
2023-03-08T20:29:46.303Z,7.47
2023-03-08T20:32:20.174Z,6.90
2023-03-08T20:34:52.665Z,8.40
2023-03-08T20:37:24.843Z,32.60
2023-03-08T20:39:55.325Z,20.87
2023-03-08T20:42:27.849Z,9.43
2023-03-08T20:44:59.181Z,6.90
2023-03-08T20:47:32.914Z,6.87
2023-03-08T20:50:04.855Z,6.00
2023-03-08T20:52:37.217Z,8.63
2023-03-08T20:55:08.213Z,6.70
2023-03-08T20:57:40.474Z,6.00
2023-03-08T21:00:17.244Z,6.57
2023-03-08T21:02:48.622Z,9.93
2023-03-08T21:05:19.531Z,7.70
2023-03-08T21:07:56.376Z,5.40
2023-03-08T21:10:28.151Z,4.50
2023-03-08T21:13:01.093Z,5.20
2023-03-08T21:15:31.875Z,5.60
2023-03-08T21:18:02.852Z,5.60
2023-03-08T21:20:33.331Z,6.23
2023-03-08T21:23:03.693Z,5.90
2023-03-08T21:25:35.500Z,4.97
2023-03-08T21:28:07.636Z,4.70
2023-03-08T21:30:37.634Z,4.40
2023-03-08T21:33:08.454Z,4.83
2023-03-08T21:35:40.905Z,4.30
2023-03-08T21:38:11.231Z,4.23
2023-03-08T21:40:43.059Z,4.00
2023-03-08T21:43:13.613Z,3.83
2023-03-08T21:45:44.203Z,4.00
2023-03-08T21:48:12.985Z,3.80
2023-03-08T21:50:41.772Z,4.00
2023-03-08T21:53:10.834Z,3.83
2023-03-08T21:55:40.663Z,4.37
2023-03-08T21:58:09.168Z,3.97
2023-03-08T22:00:39.046Z,3.90
2023-03-08T22:03:07.851Z,3.90
2023-03-08T22:05:36.164Z,4.60
2023-03-08T22:08:04.465Z,5.00
2023-03-08T22:10:32.678Z,4.20
2023-03-08T22:13:01.163Z,4.60
2023-03-08T22:15:29.461Z,4.50
2023-03-08T22:17:59.310Z,4.13
2023-03-08T22:20:28.564Z,3.87
2023-03-08T22:22:56.929Z,4.90
2023-03-08T22:25:25.287Z,5.10
2023-03-08T22:27:53.589Z,4.47
2023-03-08T22:30:21.962Z,4.50
2023-03-08T22:32:50.505Z,4.87
2023-03-08T22:35:21.603Z,5.40
2023-03-08T22:37:50.419Z,4.53
2023-03-08T22:40:19.590Z,5.30
2023-03-08T22:42:48.177Z,4.50
2023-03-08T22:45:16.767Z,4.73
2023-03-08T22:47:45.134Z,5.00
2023-03-08T22:50:14.047Z,3.97
2023-03-08T22:52:43.881Z,4.10
2023-03-08T22:55:13.206Z,4.60
2023-03-08T22:57:41.614Z,3.90
2023-03-08T23:00:14.546Z,4.37
2023-03-08T23:02:43.665Z,4.60
2023-03-08T23:05:13.489Z,4.70
2023-03-08T23:07:43.224Z,4.53
2023-03-08T23:10:13.149Z,4.30
2023-03-08T23:12:41.812Z,4.67
2023-03-08T23:15:10.928Z,4.13
2023-03-08T23:17:39.887Z,3.97
2023-03-08T23:20:10.082Z,5.37
2023-03-08T23:22:38.484Z,4.20
2023-03-08T23:25:10.196Z,4.53
2023-03-08T23:27:38.621Z,4.80
2023-03-08T23:30:08.582Z,4.70
2023-03-08T23:32:36.988Z,5.13
2023-03-08T23:35:05.834Z,4.80
2023-03-08T23:37:34.351Z,4.87
2023-03-08T23:40:04.850Z,4.23
2023-03-08T23:42:35.953Z,4.27
2023-03-08T23:45:04.498Z,4.70
2023-03-08T23:47:33.181Z,5.30
2023-03-08T23:50:01.772Z,5.10
2023-03-08T23:52:30.159Z,5.07
2023-03-08T23:54:58.525Z,4.77
2023-03-08T23:57:30.328Z,5.20
